Time;durP1;ratioP1;P1;durP2;ratioP2;P2;SDS_P1;SDS_P2;PMS_P1;PMS_P2;Temp;Humidity;BMP_temperature;BMP_pressure;BME280_temperature;BME280_humidity;BME280_pressure;Samples;Min_cycle;Max_cycle;Signal;HPM_P1;HPM_P2
2022/06/03 00:00:03;;;;;;;17.50;4.10;;;;;;;9.97;64.66;100953.64;51798;1293;1016284;-52
2022/06/03 00:03:28;;;;;;;17.30;3.90;;;;;;;9.92;64.93;100951.70;52073;1287;1017613;-52
2022/06/03 00:06:30;;;;;;;16.90;3.80;;;;;;;9.86;65.03;100956.69;52243;1287;1018888;-51
2022/06/03 00:09:25;;;;;;;17.90;4.30;;;;;;;9.81;65.15;100956.02;52301;1287;1016574;-54
2022/06/03 00:12:10;;;;;;;15.00;4.00;;;;;;;9.75;65.10;100951.36;52284;1287;1016428;-53
2022/06/03 00:15:05;;;;;;;17.10;3.60;;;;;;;9.71;65.58;100952.80;52669;1280;1016328;-53
2022/06/03 00:17:46;;;;;;;17.10;3.50;;;;;;;9.68;65.81;100956.25;52572;1277;1016672;-53
2022/06/03 00:20:31;;;;;;;13.40;4.30;;;;;;;9.64;65.77;100952.77;52641;1274;1016247;-53
2022/06/03 00:23:37;;;;;;;14.70;3.90;;;;;;;9.58;65.93;100950.17;52776;1275;1016460;-52
2022/06/03 00:26:29;;;;;;;15.00;4.00;;;;;;;9.51;65.97;100948.22;52532;1278;1016781;-54
2022/06/03 00:29:24;;;;;;;14.20;3.60;;;;;;;9.46;66.09;100948.33;52438;1277;1016880;-53
2022/06/03 00:32:23;;;;;;;15.10;3.60;;;;;;;9.39;66.25;100946.59;52514;1277;1019562;-52
2022/06/03 00:35:34;;;;;;;13.80;4.30;;;;;;;9.34;66.41;100942.17;52497;1276;1016627;-53
2022/06/03 00:38:24;;;;;;;13.50;2.90;;;;;;;9.28;66.46;100945.83;52010;1287;1016451;-52
2022/06/03 00:41:06;;;;;;;12.60;3.60;;;;;;;9.23;66.46;100944.42;51933;1289;1016948;-50
2022/06/03 00:43:42;;;;;;;;;;;;;;;9.17;66.47;100942.86;51878;1290;1016448;-50
2022/06/03 00:46:45;;;;;;;12.80;3.80;;;;;;;9.12;66.63;100943.06;51880;1287;1016194;-49
2022/06/03 00:49:33;;;;;;;16.30;3.30;;;;;;;9.07;66.63;100943.56;51699;1294;1016376;-50
2022/06/03 00:52:27;;;;;;;14.20;4.30;;;;;;;9.02;66.68;100944.69;51677;1294;1016260;-52
2022/06/03 00:55:23;;;;;;;12.10;3.10;;;;;;;8.97;66.65;100943.44;51730;1293;1019027;-54
2022/06/03 00:58:17;;;;;;;11.70;3.00;;;;;;;8.91;66.80;100944.66;51711;1294;1016468;-51
2022/06/03 01:01:04;;;;;;;11.30;3.20;;;;;;;8.86;66.82;100951.11;51797;1290;1016501;-51
2022/06/03 01:03:54;;;;;;;12.50;4.00;;;;;;;8.86;66.79;100959.10;51927;1287;1016625;-53
2022/06/03 01:06:37;;;;;;;11.20;3.10;;;;;;;8.84;67.15;100953.99;52019;1287;1016103;-50
2022/06/03 01:09:21;;;;;;;17.60;4.20;;;;;;;8.80;67.47;100949.41;52025;1287;1016858;-53
2022/06/03 01:12:09;;;;;;;15.00;4.50;;;;;;;8.79;67.68;100953.98;51972;1287;1016121;-53
2022/06/03 01:14:58;;;;;;;13.20;3.50;;;;;;;8.77;67.68;100952.48;52057;1281;1016408;-50
2022/06/03 01:17:36;;;;;;;15.30;4.20;;;;;;;8.73;67.86;100952.35;52467;1278;1016496;-51
2022/06/03 01:20:18;;;;;;;16.10;4.80;;;;;;;8.69;68.74;100949.86;52415;1277;1017936;-52
2022/06/03 01:23:24;;;;;;;13.10;4.00;;;;;;;8.70;69.10;100951.76;52585;1278;1017569;-53
2022/06/03 01:26:16;;;;;;;15.90;3.90;;;;;;;8.71;69.25;100952.76;52483;1274;1016736;-53
2022/06/03 01:29:16;;;;;;;15.60;3.70;;;;;;;8.72;69.06;100959.95;52639;1273;1016033;-53
2022/06/03 01:32:28;;;;;;;13.50;3.80;;;;;;;8.68;68.90;100952.20;52651;1273;1016685;-53
2022/06/03 01:35:21;;;;;;;16.20;4.10;;;;;;;8.62;69.23;100942.95;52398;1279;1019856;-50
2022/06/03 01:37:56;;;;;;;13.20;3.20;;;;;;;8.59;69.69;100939.96;52513;1279;1016000;-54
2022/06/03 01:40:43;;;;;;;11.40;3.30;;;;;;;8.58;69.76;100942.46;52522;1279;1018668;-51
2022/06/03 01:43:48;;;;;;;15.30;3.50;;;;;;;8.57;69.71;100947.75;52495;1279;1016773;-53
2022/06/03 01:46:37;;;;;;;10.90;3.30;;;;;;;8.51;69.54;100944.61;52385;1279;1019112;-53
2022/06/03 01:49:53;;;;;;;12.20;3.10;;;;;;;8.46;69.60;100940.53;52368;1281;1016689;-53
2022/06/03 01:52:53;;;;;;;11.30;2.80;;;;;;;8.43;69.66;100943.77;52202;1281;1016607;-53
2022/06/03 01:56:01;;;;;;;12.00;3.50;;;;;;;8.37;69.55;100946.00;52385;1284;1016555;-54
2022/06/03 01:59:02;;;;;;;9.30;2.90;;;;;;;8.32;69.58;100945.55;52429;1281;1016566;-52
2022/06/03 02:02:07;;;;;;;12.70;3.50;;;;;;;8.26;69.69;100938.58;52348;1281;1016536;-52
2022/06/03 02:04:54;;;;;;;11.20;3.10;;;;;;;8.26;70.02;100940.17;52383;1282;1017805;-50
2022/06/03 02:07:41;;;;;;;12.50;3.80;;;;;;;8.26;69.87;100941.77;52228;1281;1018567;-53
2022/06/03 02:10:40;;;;;;;10.50;3.50;;;;;;;8.21;69.95;100939.67;52502;1277;1016228;-50
2022/06/03 02:13:48;;;;;;;11.30;3.60;;;;;;;8.16;69.91;100939.83;52366;1281;1016293;-51
2022/06/03 02:16:55;;;;;;;9.20;3.40;;;;;;;8.12;69.75;100943.70;52244;1281;1016635;-53
2022/06/03 02:20:00;;;;;;;14.20;3.00;;;;;;;8.08;69.84;100941.52;52214;1282;1016584;-50
2022/06/03 02:23:03;;;;;;;10.40;2.80;;;;;;;8.05;69.85;100937.65;52386;1281;1016166;-49
2022/06/03 02:25:52;;;;;;;11.40;3.40;;;;;;;8.02;69.99;100939.50;52351;1281;1016658;-50
2022/06/03 02:28:48;;;;;;;11.70;3.70;;;;;;;7.99;70.12;100938.53;52499;1278;1016357;-49
2022/06/03 02:31:37;;;;;;;10.10;3.70;;;;;;;7.97;70.18;100942.84;52473;1280;1016420;-49
2022/06/03 02:34:28;;;;;;;10.80;3.00;;;;;;;7.93;70.28;100946.13;52397;1281;1019152;-50
2022/06/03 02:37:14;;;;;;;8.80;2.90;;;;;;;7.90;70.23;100943.77;52473;1279;1016670;-51
2022/06/03 02:40:14;;;;;;;16.00;3.00;;;;;;;7.89;70.29;100948.94;52548;1279;1018423;-53
2022/06/03 02:43:33;;;;;;;9.50;2.60;;;;;;;7.86;70.34;100944.73;52473;1278;1016655;-52
2022/06/03 02:46:33;;;;;;;10.60;2.50;;;;;;;7.84;70.55;100946.32;52786;1261;1017360;-55
2022/06/03 02:49:38;;;;;;;9.20;3.00;;;;;;;7.83;70.64;100946.19;52521;1273;1016681;-53
2022/06/03 02:52:39;;;;;;;10.40;2.40;;;;;;;7.81;70.86;100951.40;52550;1273;1016711;-54
2022/06/03 02:55:47;;;;;;;11.00;2.90;;;;;;;7.79;70.97;100952.05;52506;1273;1020086;-54
2022/06/03 02:58:53;;;;;;;14.80;3.90;;;;;;;7.76;71.05;100949.98;52679;1273;1016152;-56
2022/06/03 03:01:57;;;;;;;11.40;3.60;;;;;;;7.74;71.19;100951.25;52587;1273;1016823;-54
2022/06/03 03:04:59;;;;;;;10.30;2.80;;;;;;;7.72;71.20;100953.20;52838;1273;1016569;-55
2022/06/03 03:07:57;;;;;;;9.70;3.60;;;;;;;7.70;71.37;100952.94;52571;1273;1016323;-55
2022/06/03 03:11:03;;;;;;;11.70;3.40;;;;;;;7.68;71.33;100957.27;52508;1274;1016643;-55
2022/06/03 03:14:09;;;;;;;11.80;3.20;;;;;;;7.66;71.48;100962.02;52462;1280;1017112;-54
2022/06/03 03:16:56;;;;;;;12.20;3.60;;;;;;;7.67;71.46;100968.98;52476;1279;1016420;-53
2022/06/03 03:19:45;;;;;;;12.90;4.20;;;;;;;7.66;71.62;100963.92;52531;1280;1016703;-55
2022/06/03 03:22:48;;;;;;;10.30;2.80;;;;;;;7.65;71.75;100963.96;52460;1280;1016701;-56
2022/06/03 03:25:49;;;;;;;10.50;3.20;;;;;;;7.65;71.99;100963.49;52493;1279;1016023;-55
2022/06/03 03:28:56;;;;;;;13.00;4.60;;;;;;;7.65;72.21;100961.51;52482;1279;1016619;-55
2022/06/03 03:32:04;;;;;;;11.40;3.30;;;;;;;7.65;72.36;100964.59;52455;1280;1016248;-56
2022/06/03 03:35:10;;;;;;;12.80;3.40;;;;;;;7.67;72.51;100968.35;52406;1281;1016481;-55
2022/06/03 03:38:12;;;;;;;10.70;3.80;;;;;;;7.69;72.63;100969.08;52297;1284;1016712;-56
2022/06/03 03:41:19;;;;;;;12.70;3.70;;;;;;;7.71;72.80;100967.11;52133;1284;1016621;-54
2022/06/03 03:44:21;;;;;;;12.50;3.60;;;;;;;7.77;73.25;100970.74;52107;1284;1018752;-55
2022/06/03 03:47:32;;;;;;;11.00;3.70;;;;;;;7.83;73.44;100976.45;52252;1283;1016688;-55
2022/06/03 03:50:34;;;;;;;11.20;3.40;;;;;;;7.87;73.54;100971.06;52261;1282;1017622;-55
2022/06/03 03:53:46;;;;;;;12.60;3.90;;;;;;;7.93;73.72;100970.27;52494;1280;1016318;-55
2022/06/03 03:56:51;;;;;;;9.50;3.70;;;;;;;8.00;74.00;100972.51;52437;1279;1016503;-53
2022/06/03 03:59:54;;;;;;;10.90;4.00;;;;;;;8.08;74.12;100981.33;52104;1279;1535816;-53
2022/06/03 04:03:20;;;;;;;10.50;3.60;;;;;;;8.15;74.27;100983.24;52712;1278;1016683;-56
2022/06/03 04:06:39;;;;;;;10.30;3.70;;;;;;;8.24;74.39;100982.83;52482;1279;1016439;-54
2022/06/03 04:09:54;;;;;;;14.90;5.00;;;;;;;8.32;74.37;100978.06;52393;1279;1017177;-54
2022/06/03 04:12:53;;;;;;;12.70;4.70;;;;;;;8.43;74.61;100980.17;52197;1284;1016487;-56
2022/06/03 04:16:02;;;;;;;12.20;4.00;;;;;;;8.56;74.59;100984.17;52179;1281;1016585;-53
2022/06/03 04:18:56;;;;;;;15.10;5.50;;;;;;;8.67;74.57;100988.05;52042;1285;1017196;-53
2022/06/03 04:21:44;;;;;;;14.30;5.20;;;;;;;8.78;74.84;100986.55;51925;1287;1018847;-56
2022/06/03 04:24:54;;;;;;;20.80;6.90;;;;;;;8.90;74.99;100984.30;52038;1288;1016035;-54
2022/06/03 04:27:53;;;;;;;15.70;7.00;;;;;;;9.05;74.97;100986.19;51994;1286;1018427;-56
2022/06/03 04:31:05;;;;;;;16.40;5.80;;;;;;;9.21;75.21;100984.28;52032;1287;1016376;-57
2022/06/03 04:34:09;;;;;;;13.70;5.00;;;;;;;9.40;75.00;100986.63;51903;1287;1019695;-55
2022/06/03 04:37:12;;;;;;;14.80;5.80;;;;;;;9.58;75.07;100984.59;51930;1287;1020026;-54
2022/06/03 04:40:18;;;;;;;13.20;5.20;;;;;;;9.72;75.17;100983.42;51994;1287;1017107;-55
2022/06/03 04:43:17;;;;;;;12.70;5.50;;;;;;;9.88;75.15;100982.92;51837;1285;1016719;-55
2022/06/03 04:46:17;;;;;;;19.20;7.20;;;;;;;10.06;75.17;100986.85;52282;1281;1017430;-53
2022/06/03 04:49:26;;;;;;;15.50;6.10;;;;;;;10.22;75.10;100988.15;53652;1289;1015808;-56
2022/06/03 04:52:32;;;;;;;17.20;7.40;;;;;;;10.42;75.12;100990.39;53656;1290;1015877;-56
2022/06/03 04:55:38;;;;;;;15.40;7.20;;;;;;;10.62;75.13;100984.61;51863;1288;1016125;-54
2022/06/03 04:58:38;;;;;;;20.80;6.30;;;;;;;10.78;75.23;100984.97;51971;1288;1016638;-57
2022/06/03 05:01:45;;;;;;;18.60;7.10;;;;;;;10.97;75.12;100988.38;51968;1287;1018995;-54
2022/06/03 05:04:54;;;;;;;15.90;6.20;;;;;;;11.13;75.13;100987.09;51906;1287;1016267;-57
2022/06/03 05:08:06;;;;;;;13.30;6.00;;;;;;;11.32;75.04;100989.33;51727;1291;1016803;-55
2022/06/03 05:11:07;;;;;;;15.10;6.10;;;;;;;11.59;74.70;100990.09;51746;1291;1017718;-55
2022/06/03 05:14:20;;;;;;;13.30;5.30;;;;;;;11.76;74.67;100987.18;51735;1291;1016370;-55
2022/06/03 05:17:18;;;;;;;11.00;5.20;;;;;;;11.97;74.41;100994.98;51675;1296;1016525;-56
2022/06/03 05:20:20;;;;;;;14.00;5.20;;;;;;;12.18;74.34;100999.48;51708;1296;1016781;-54
2022/06/03 05:23:22;;;;;;;14.50;5.40;;;;;;;12.37;74.13;100999.15;51832;1295;1017454;-54
2022/06/03 05:26:26;;;;;;;14.60;5.60;;;;;;;12.58;74.05;101001.50;51753;1291;1016422;-55
2022/06/03 05:29:25;;;;;;;13.60;5.40;;;;;;;12.81;73.81;100997.70;51968;1288;1016707;-56
2022/06/03 05:32:44;;;;;;;13.30;4.90;;;;;;;13.04;73.59;101005.66;52030;1285;1016714;-56
2022/06/03 05:35:52;;;;;;;12.30;5.00;;;;;;;13.29;73.16;101000.88;52184;1284;1016054;-55
2022/06/03 05:38:47;;;;;;;13.30;5.40;;;;;;;13.51;72.64;101002.64;52183;1284;1016291;-54
2022/06/03 05:44:56;;;;;;;18.50;5.60;;;;;;;13.95;72.16;100996.70;52081;1285;1019986;-56
2022/06/03 05:47:32;;;;;;;13.50;4.50;;;;;;;14.14;71.84;100996.20;52237;1284;1016126;-57
2022/06/03 05:50:07;;;;;;;11.30;4.60;;;;;;;14.32;71.90;100999.64;52366;1284;1016753;-55
2022/06/03 05:53:00;;;;;;;13.50;4.20;;;;;;;14.52;71.36;100990.56;52378;1280;1016418;-56
2022/06/03 05:55:41;;;;;;;14.60;4.00;;;;;;;14.74;70.93;100987.55;52604;1279;1016355;-57
2022/06/03 05:58:27;;;;;;;11.60;3.80;;;;;;;14.89;70.36;100987.25;52490;1279;1018424;-56
2022/06/03 06:01:16;;;;;;;13.20;4.20;;;;;;;15.06;70.60;100985.68;52533;1279;1016070;-57
2022/06/03 06:03:55;;;;;;;13.10;3.10;;;;;;;15.25;70.18;100984.19;52528;1279;1017423;-58
2022/06/03 06:06:32;;;;;;;10.60;2.90;;;;;;;15.42;69.18;100985.02;52454;1279;1016590;-55
2022/06/03 06:09:25;;;;;;;9.30;2.90;;;;;;;15.54;69.03;100984.33;52485;1279;1016790;-57
2022/06/03 06:12:12;;;;;;;9.80;3.00;;;;;;;15.73;68.88;100987.04;52037;1284;1016813;-56
2022/06/03 06:14:58;;;;;;;10.40;3.10;;;;;;;15.90;68.62;100990.33;52651;1284;1016908;-56
2022/06/03 06:17:42;;;;;;;9.90;2.70;;;;;;;16.08;68.67;100989.77;52078;1285;1019553;-57
2022/06/03 06:20:21;;;;;;;10.10;3.00;;;;;;;16.27;68.53;100988.17;52183;1284;1018149;-54
2022/06/03 06:22:57;;;;;;;8.00;2.30;;;;;;;16.44;67.61;100989.08;52373;1279;1016020;-57
2022/06/03 06:25:38;;;;;;;9.10;2.20;;;;;;;16.60;66.78;100990.45;53194;1279;1016047;-55
2022/06/03 06:28:24;;;;;;;6.00;1.50;;;;;;;16.75;66.40;100985.86;52294;1279;1016736;-56
2022/06/03 06:31:22;;;;;;;7.50;2.00;;;;;;;16.93;65.67;100985.10;52284;1279;1016535;-56
2022/06/03 06:34:29;;;;;;;5.50;1.30;;;;;;;17.12;65.24;100983.54;52346;1279;1018413;-54
2022/06/03 06:37:44;;;;;;;5.50;1.60;;;;;;;17.27;64.70;100981.59;52430;1279;1017389;-56
2022/06/03 06:40:34;;;;;;;4.70;1.20;;;;;;;17.46;64.09;100978.84;52331;1279;1017609;-54
2022/06/03 06:43:11;;;;;;;6.00;1.30;;;;;;;17.63;63.36;100981.46;52370;1279;1016326;-55
2022/06/03 06:45:55;;;;;;;5.70;1.50;;;;;;;17.77;62.53;100978.20;52514;1281;1016340;-55
2022/06/03 06:48:35;;;;;;;4.50;1.40;;;;;;;17.91;62.34;100973.50;52527;1275;1018088;-57
2022/06/03 06:51:18;;;;;;;5.60;0.90;;;;;;;18.03;61.34;100974.03;52616;1273;1016566;-57
2022/06/03 06:53:55;;;;;;;4.90;1.10;;;;;;;18.15;61.09;100977.48;52538;1273;1016702;-57
2022/06/03 06:56:32;;;;;;;7.40;1.20;;;;;;;18.27;60.58;100974.23;52746;1273;1016770;-56
2022/06/03 06:59:12;;;;;;;5.80;1.30;;;;;;;18.37;59.85;100970.82;52661;1273;1019998;-58
2022/06/03 07:01:45;;;;;;;7.60;1.10;;;;;;;18.46;59.35;100972.13;52671;1273;1016279;-57
2022/06/03 07:04:22;;;;;;;10.30;1.60;;;;;;;18.57;59.19;100972.46;52579;1273;1016634;-56
2022/06/03 07:06:56;;;;;;;7.00;1.10;;;;;;;18.69;58.63;100969.04;52635;1273;1016588;-58
2022/06/03 07:09:38;;;;;;;5.30;1.10;;;;;;;18.78;58.61;100965.33;52630;1273;1016577;-54
2022/06/03 07:12:12;;;;;;;5.40;1.10;;;;;;;18.91;57.87;100969.34;52594;1273;1016677;-55
2022/06/03 07:14:55;;;;;;;4.80;0.90;;;;;;;19.01;57.36;100963.39;52690;1273;1016512;-57
2022/06/03 07:20:37;;;;;;;7.50;0.90;;;;;;;19.24;56.66;100963.34;52576;1273;1016789;-57
2022/06/03 07:23:14;;;;;;;6.70;1.40;;;;;;;19.34;56.23;100961.41;52630;1271;1016631;-58
2022/06/03 07:25:47;;;;;;;4.30;0.70;;;;;;;19.47;55.79;100963.52;52623;1273;1016333;-57
2022/06/03 07:28:29;;;;;;;6.70;1.10;;;;;;;19.55;54.87;100963.25;52586;1273;1016336;-57
2022/06/03 07:31:09;;;;;;;7.70;1.20;;;;;;;19.64;54.19;100957.22;52583;1273;1016249;-57
2022/06/03 07:33:43;;;;;;;3.70;0.80;;;;;;;19.74;53.56;100951.69;52590;1273;1016737;-57
2022/06/03 07:36:21;;;;;;;5.10;1.10;;;;;;;19.86;53.59;100950.52;52551;1273;1017691;-57
2022/06/03 07:38:55;;;;;;;3.90;0.90;;;;;;;20.00;53.11;100950.83;52567;1273;1016585;-58
2022/06/03 07:41:31;;;;;;;5.40;1.10;;;;;;;20.11;52.64;100951.13;52568;1273;1016401;-58
2022/06/03 07:44:09;;;;;;;5.30;0.90;;;;;;;20.20;52.00;100946.75;52512;1273;1016733;-58
2022/06/03 07:46:50;;;;;;;4.30;1.00;;;;;;;20.27;51.27;100942.68;52541;1273;1016944;-56
2022/06/03 07:49:22;;;;;;;5.00;0.90;;;;;;;20.34;51.33;100944.98;52617;1273;1016630;-56
2022/06/03 07:51:57;;;;;;;2.90;0.70;;;;;;;20.40;51.26;100943.63;52575;1273;1016521;-57
2022/06/03 07:54:30;;;;;;;3.90;0.70;;;;;;;20.49;51.34;100941.69;52531;1273;1015911;-57
2022/06/03 07:57:07;;;;;;;4.00;0.90;;;;;;;20.58;51.02;100940.91;52587;1273;1015958;-57
2022/06/03 07:59:41;;;;;;;6.00;0.80;;;;;;;20.68;50.29;100939.52;52618;1273;1016594;-58
2022/06/03 08:02:20;;;;;;;5.50;0.90;;;;;;;20.73;49.56;100939.15;52497;1273;1018188;-57
2022/06/03 08:04:59;;;;;;;6.30;1.20;;;;;;;20.78;49.27;100941.15;52551;1273;1016666;-58
2022/06/03 08:13:08;;;;;;;5.00;0.80;;;;;;;20.93;48.31;100934.94;52630;1273;1018512;-59
2022/06/03 08:15:40;;;;;;;4.30;0.80;;;;;;;20.92;48.27;100934.69;52523;1273;1016296;-59
2022/06/03 08:18:14;;;;;;;2.30;0.80;;;;;;;21.00;48.22;100927.95;52570;1273;1016724;-59
2022/06/03 08:20:48;;;;;;;5.60;0.80;;;;;;;21.09;48.05;100925.08;52591;1273;1015916;-58
2022/06/03 08:23:21;;;;;;;3.40;0.70;;;;;;;21.20;47.83;100930.44;52647;1273;1016577;-59
2022/06/03 08:25:54;;;;;;;7.50;0.90;;;;;;;21.30;47.29;100928.55;52711;1273;1016113;-59
2022/06/03 08:28:28;;;;;;;4.60;0.70;;;;;;;21.37;47.03;100922.30;52740;1273;1016965;-59
2022/06/03 08:31:00;;;;;;;5.10;0.90;;;;;;;21.45;47.25;100922.80;52659;1273;1015958;-59
2022/06/03 08:33:36;;;;;;;4.60;1.10;;;;;;;21.53;47.00;100920.01;52617;1273;1016635;-59
2022/06/03 08:36:08;;;;;;;1.80;0.60;;;;;;;21.59;47.09;100918.37;52582;1273;1016431;-59
2022/06/03 08:38:43;;;;;;;6.30;1.00;;;;;;;21.65;46.25;100926.37;52592;1273;1016436;-59
2022/06/03 08:41:29;;;;;;;3.50;0.70;;;;;;;21.71;46.44;100923.64;52543;1273;1016695;-59
2022/06/03 08:44:30;;;;;;;3.60;0.80;;;;;;;21.80;46.34;100920.42;52793;1273;1016282;-59
2022/06/03 08:47:06;;;;;;;5.60;0.80;;;;;;;21.92;46.37;100921.29;52826;1262;1016483;-55
2022/06/03 08:49:55;;;;;;;4.60;1.00;;;;;;;21.98;45.99;100920.05;52594;1270;1016396;-56
2022/06/03 08:52:34;;;;;;;4.00;1.10;;;;;;;22.04;45.58;100918.90;52556;1273;1017267;-57
2022/06/03 08:55:22;;;;;;;3.50;0.80;;;;;;;22.10;45.72;100911.72;52610;1271;1016575;-53
2022/06/03 08:57:56;;;;;;;4.00;1.00;;;;;;;22.16;45.35;100909.65;52423;1271;1015840;-54
2022/06/03 09:00:40;;;;;;;4.50;1.00;;;;;;;22.19;45.13;100906.45;52656;1271;1016507;-53
2022/06/03 09:03:14;;;;;;;4.40;1.00;;;;;;;22.24;45.28;100905.20;52600;1271;1016201;-55
2022/06/03 09:05:49;;;;;;;4.40;1.10;;;;;;;22.30;44.96;100909.09;52597;1273;1019505;-55
2022/06/03 09:08:26;;;;;;;3.50;1.00;;;;;;;22.33;44.86;100909.74;52671;1274;1020296;-51
2022/06/03 09:11:03;;;;;;;7.10;1.00;;;;;;;22.38;44.55;100909.75;52740;1271;1016553;-55
2022/06/03 09:13:42;;;;;;;5.60;1.20;;;;;;;22.42;44.57;100906.98;52771;1270;1016568;-54
2022/06/03 09:16:16;;;;;;;3.30;0.80;;;;;;;22.44;44.45;100905.14;52761;1271;1019040;-56
2022/06/03 09:18:51;;;;;;;4.30;0.90;;;;;;;22.49;44.50;100903.70;52760;1271;1016810;-54
2022/06/03 09:21:25;;;;;;;6.20;1.10;;;;;;;22.56;44.70;100902.45;52724;1271;1019010;-54
2022/06/03 09:24:00;;;;;;;3.70;0.80;;;;;;;22.67;44.49;100901.36;52695;1271;1016221;-55
2022/06/03 09:26:33;;;;;;;4.30;1.00;;;;;;;22.78;44.03;100900.83;52808;1272;1015818;-57
2022/06/03 09:29:05;;;;;;;4.30;0.90;;;;;;;22.84;43.88;100902.98;52688;1271;1016876;-55
2022/06/03 09:31:37;;;;;;;3.80;0.90;;;;;;;22.89;43.26;100907.90;52628;1271;1016373;-54
2022/06/03 09:34:08;;;;;;;4.50;0.90;;;;;;;22.91;43.36;100905.68;52740;1271;1016177;-56
2022/06/03 09:36:39;;;;;;;4.90;1.00;;;;;;;22.92;43.12;100902.55;52676;1273;1016691;-51
2022/06/03 09:39:12;;;;;;;3.80;0.90;;;;;;;22.94;42.97;100900.70;52692;1271;1019131;-57
2022/06/03 09:41:45;;;;;;;4.90;0.80;;;;;;;22.99;42.73;100898.38;53275;1272;1016614;-55
2022/06/03 09:44:21;;;;;;;3.20;0.70;;;;;;;23.03;42.47;100903.56;52551;1274;1016035;-52
2022/06/03 09:46:59;;;;;;;7.40;0.80;;;;;;;23.11;42.37;100903.09;52647;1271;1016097;-52
2022/06/03 09:49:30;;;;;;;4.50;0.80;;;;;;;23.20;41.94;100900.81;52708;1271;1016013;-56
2022/06/03 09:52:02;;;;;;;5.00;0.90;;;;;;;23.24;41.35;100904.96;52808;1268;1016118;-56
2022/06/03 09:54:35;;;;;;;2.50;0.80;;;;;;;23.28;41.31;100901.75;52767;1271;1016004;-55
2022/06/03 09:57:12;;;;;;;1.80;0.60;;;;;;;23.34;40.47;100894.92;52585;1273;1016015;-57
2022/06/03 09:59:49;;;;;;;3.10;0.70;;;;;;;23.34;40.71;100889.95;52605;1271;1016164;-54
2022/06/03 10:02:19;;;;;;;2.50;0.60;;;;;;;23.40;39.94;100887.73;52619;1273;1016055;-55
2022/06/03 10:04:48;;;;;;;3.00;0.70;;;;;;;23.45;40.06;100884.79;52705;1273;1016676;-55
2022/06/03 10:07:18;;;;;;;2.70;0.80;;;;;;;23.50;40.44;100883.61;52697;1273;1017090;-55
2022/06/03 10:12:49;;;;;;;3.80;0.70;;;;;;;23.56;39.77;100878.59;52554;1273;1016715;-54
2022/06/03 10:15:41;;;;;;;3.00;0.60;;;;;;;23.61;39.90;100878.38;52592;1273;1016538;-55
2022/06/03 10:18:26;;;;;;;3.40;0.60;;;;;;;23.69;39.42;100876.75;52611;1273;1016724;-53
2022/06/03 10:20:59;;;;;;;2.00;0.60;;;;;;;23.70;39.13;100881.32;52588;1272;1016049;-54
2022/06/03 10:23:36;;;;;;;3.20;0.70;;;;;;;23.72;39.25;100880.80;52576;1271;1018997;-55
2022/06/03 10:26:07;;;;;;;3.00;0.80;;;;;;;23.77;39.34;100876.36;52574;1271;1016644;-54
2022/06/03 10:28:39;;;;;;;2.50;0.60;;;;;;;23.85;39.18;100876.05;52661;1273;1016384;-54
2022/06/03 10:31:15;;;;;;;4.20;0.70;;;;;;;23.81;38.26;100870.73;52749;1273;1016576;-55
2022/06/03 10:33:54;;;;;;;5.70;0.80;;;;;;;23.76;38.81;100869.98;52734;1272;1015778;-54
2022/06/03 10:36:27;;;;;;;4.00;0.70;;;;;;;23.84;38.70;100870.85;52617;1271;1016594;-55
2022/06/03 10:38:57;;;;;;;3.90;0.60;;;;;;;23.90;39.09;100864.31;52689;1272;1016171;-57
2022/06/03 10:41:38;;;;;;;7.30;0.80;;;;;;;23.94;38.04;100863.75;52651;1273;1016207;-56
2022/06/03 10:44:14;;;;;;;2.50;0.60;;;;;;;23.94;38.48;100866.40;52657;1273;1018853;-54
2022/06/03 10:46:55;;;;;;;2.50;0.60;;;;;;;24.03;38.78;100865.96;52696;1272;1016592;-55
2022/06/03 10:49:27;;;;;;;4.50;0.60;;;;;;;24.10;38.18;100863.37;52594;1272;1016425;-54
2022/06/03 11:03:27;;;;;;;3.00;0.70;;;;;;;24.30;37.26;100839.42;52629;1271;1017158;-53
2022/06/03 11:05:57;;;;;;;2.10;0.70;;;;;;;24.36;36.95;100836.88;52627;1271;1016191;-53
2022/06/03 11:08:26;;;;;;;3.60;0.50;;;;;;;24.42;37.09;100834.36;52667;1270;1016282;-54
2022/06/03 11:10:57;;;;;;;2.30;0.40;;;;;;;24.51;37.04;100832.60;52686;1271;1019168;-57
2022/06/03 11:13:32;;;;;;;2.50;0.50;;;;;;;24.62;36.25;100839.18;52559;1273;1016703;-54
2022/06/03 11:16:20;;;;;;;3.30;0.60;;;;;;;24.61;35.97;100828.95;52632;1270;1016619;-51
2022/06/03 11:18:50;;;;;;;1.70;0.50;;;;;;;24.64;36.27;100823.90;52659;1271;1016584;-57
2022/06/03 11:21:23;;;;;;;2.50;0.50;;;;;;;24.73;36.37;100820.95;52571;1271;1016670;-52
2022/06/03 11:23:53;;;;;;;1.70;0.40;;;;;;;24.82;35.61;100818.88;52684;1271;1016019;-55
2022/06/03 11:26:23;;;;;;;;;;;;;;;24.86;35.42;100817.75;52678;1273;1016232;-57
2022/06/03 11:28:59;;;;;;;3.20;0.50;;;;;;;24.83;35.10;100810.12;52656;1271;1016671;-55
2022/06/03 11:31:31;;;;;;;3.50;0.50;;;;;;;24.87;34.54;100810.63;52832;1271;1016577;-55
2022/06/03 11:34:05;;;;;;;2.40;0.40;;;;;;;24.91;34.10;100808.40;52768;1270;1016403;-56
2022/06/03 11:36:44;;;;;;;1.60;0.30;;;;;;;24.93;34.15;100804.89;52783;1270;1016415;-57
2022/06/03 11:39:22;;;;;;;4.80;0.50;;;;;;;24.89;33.58;100800.70;52624;1270;1016109;-56
2022/06/03 11:41:59;;;;;;;3.40;0.80;;;;;;;24.88;33.84;100796.69;52663;1272;1016591;-54
2022/06/03 11:44:39;;;;;;;3.60;0.50;;;;;;;24.95;34.14;100792.08;52853;1270;1016695;-53
2022/06/03 11:47:14;;;;;;;1.40;0.50;;;;;;;25.03;33.72;100786.98;52587;1270;1016431;-52
2022/06/03 11:49:45;;;;;;;2.30;0.50;;;;;;;25.11;33.49;100787.17;52569;1273;1016260;-55
2022/06/03 11:52:16;;;;;;;3.10;0.60;;;;;;;25.16;33.41;100785.84;52701;1270;1016201;-56
2022/06/03 11:54:47;;;;;;;3.10;0.50;;;;;;;25.20;33.53;100783.22;52593;1271;1016592;-51
2022/06/03 11:57:16;;;;;;;3.20;0.60;;;;;;;25.24;33.08;100773.81;52600;1271;1016438;-54
2022/06/03 11:59:52;;;;;;;1.50;0.30;;;;;;;25.25;33.06;100770.88;52615;1270;1016579;-51
2022/06/03 12:02:31;;;;;;;2.70;0.40;;;;;;;25.24;32.43;100768.45;52598;1270;1018870;-51
2022/06/03 12:05:06;;;;;;;1.70;0.40;;;;;;;25.21;31.60;100764.86;52611;1268;1016456;-53
2022/06/03 12:07:42;;;;;;;3.80;0.50;;;;;;;25.10;31.70;100764.84;52690;1273;1019575;-54
2022/06/03 12:10:20;;;;;;;1.70;0.40;;;;;;;25.11;32.23;100760.23;52610;1271;1021061;-52
2022/06/03 12:13:15;;;;;;;2.80;0.30;;;;;;;25.17;31.80;100760.20;52635;1270;1016078;-51
2022/06/03 12:15:57;;;;;;;2.90;0.40;;;;;;;25.20;31.86;100746.34;52550;1271;1016537;-51
2022/06/03 12:19:02;;;;;;;4.00;0.60;;;;;;;25.17;31.29;100745.27;52643;1270;1016567;-53
2022/06/03 12:22:18;;;;;;;2.40;0.30;;;;;;;25.17;31.50;100743.21;52667;1271;1016315;-54
2022/06/03 12:24:52;;;;;;;3.30;0.40;;;;;;;25.16;31.02;100737.57;52576;1276;1016485;-50
2022/06/03 12:27:28;;;;;;;1.70;0.50;;;;;;;25.03;31.07;100734.31;52433;1276;1016475;-53
2022/06/03 12:30:19;;;;;;;3.90;0.60;;;;;;;25.03;31.30;100734.16;52542;1276;1016396;-54
2022/06/03 12:32:56;;;;;;;1.50;0.40;;;;;;;25.10;31.54;100729.79;52466;1276;1016471;-53
2022/06/03 12:35:53;;;;;;;2.70;0.40;;;;;;;25.18;31.52;100732.27;52674;1276;1016263;-54
2022/06/03 12:38:41;;;;;;;1.80;0.40;;;;;;;25.26;31.82;100729.51;52467;1276;1016561;-54
2022/06/03 12:41:31;;;;;;;2.60;0.60;;;;;;;25.36;32.04;100725.88;52523;1276;1016561;-54
2022/06/03 12:44:01;;;;;;;5.80;0.50;;;;;;;25.41;31.63;100721.54;52376;1276;1019926;-55
2022/06/03 12:46:40;;;;;;;3.70;0.70;;;;;;;25.44;31.48;100716.88;52472;1276;1016575;-53
2022/06/03 12:49:38;;;;;;;2.90;0.30;;;;;;;25.27;30.53;100708.31;52515;1279;1016455;-55
2022/06/03 12:52:12;;;;;;;3.70;0.50;;;;;;;24.98;30.58;100701.43;52484;1276;1016765;-53
2022/06/03 12:54:49;;;;;;;1.80;0.70;;;;;;;24.86;31.31;100693.68;53425;1274;1016204;-54
2022/06/03 12:57:25;;;;;;;1.90;0.50;;;;;;;24.92;31.88;100691.52;52679;1273;1018889;-52
2022/06/03 13:00:00;;;;;;;1.50;0.50;;;;;;;25.05;31.95;100684.23;53476;1271;1016050;-55
2022/06/03 13:02:36;;;;;;;4.30;0.50;;;;;;;25.18;32.26;100686.21;52646;1271;1018707;-53
2022/06/03 13:05:40;;;;;;;7.50;0.60;;;;;;;25.31;32.16;100687.70;52680;1271;1016344;-52